X  Close Metar Aviation Weather Data     EGLF Farnborough Airport
Temperature
5°C Temperature
5°C Dewpoint
100% Humidity



Wind
6 MPH
10 KM/H
3 M/S
5 KTS



300°
WNW
Current Conditions

Clear Clear
Pressure 994.92 (hPa) - 29.38 (inHg)
Visibility 6.2 (mile) - 10 (km)
Airport
Airport-code EGLF

Location: Farnborough Airport
Distance: 5 (mi)

Metar:
EGLF 250150Z AUTO 30005KT 9999 NCD 05/05 Q0995

Time: 25-09-2020 02:50 BST